»·PEaware :: SWA6309 KLAS-KSNA

SWA6309 :: KLAS-KSNA

FLIGHT INFORMATION

Flight Status: Arrived
Operator:
Southwest Airlines
More flights by this operator :: More flights under this callsign
Pilot: Brandon G. (13)
Aircraft: BOEING 737-800
(B738)
More flights by this aircraft type
Origin: KLAS McCarran Intl
United States
Destination: KSNA John Wayne-Orange Co
United States
More flights between these airports :: More routes between these airports
Route: BOACH8 WHIGG FEYLA DSNEE2
File this flight plan on PilotEdge
Remarks:
Altitude:
(Current/Filed)
28,000ft
Speed:
(Current/Filed)
425kts
Departed: 08-Jan-18 11:11 PM
Arrived: 08-Jan-18 11:57 PM
Distance/Time
Traveled:
196nm/0:46
Distance/Time
To Go:
Arrived

Flight Plot

Page will automatically refresh every two minutes.

Flight plan parsing failed; only flown route is shown


Map Options




Map Legend


Flown Route
Filed Route
Departure Airport
Arrival Airport
Navaid (VOR, NDB)
Fix

Horizontal Profiles

Position Reports

Time Latitude Longitude Heading Altitude Ground
Speed
08-Jan-18 22:50 36.081369 -115.147837 61 2096ft 0kts
08-Jan-18 22:51 36.081369 -115.147837 61 2096ft 0kts
08-Jan-18 22:53 36.081369 -115.147837 61 2096ft 0kts
08-Jan-18 22:54 36.081369 -115.147837 61 2096ft 0kts
08-Jan-18 22:55 36.081369 -115.147837 61 2096ft 0kts
08-Jan-18 22:56 36.081369 -115.147837 61 2096ft 0kts
08-Jan-18 22:57 36.081369 -115.147837 61 2096ft 0kts
08-Jan-18 22:58 36.081369 -115.147837 61 2096ft 0kts
08-Jan-18 22:59 36.081369 -115.147837 61 2096ft 0kts
08-Jan-18 23:00 36.081369 -115.147837 61 2096ft 0kts
08-Jan-18 23:01 36.081369 -115.147837 61 2096ft 0kts
08-Jan-18 23:02 36.081369 -115.147837 61 2096ft 0kts
08-Jan-18 23:03 36.081369 -115.147837 61 2096ft 0kts
08-Jan-18 23:04 36.081369 -115.147837 61 2096ft 0kts
08-Jan-18 23:05 36.081369 -115.147837 61 2096ft 0kts
08-Jan-18 23:06 36.081369 -115.147837 61 2096ft 0kts
08-Jan-18 23:07 36.081369 -115.147837 61 2096ft 0kts
08-Jan-18 23:08 36.081204 -115.148324 93 2098ft 2kts
08-Jan-18 23:09 36.081456 -115.148739 155 2100ft 0kts
08-Jan-18 23:10 36.081456 -115.148739 155 2099ft 0kts
08-Jan-18 23:11 36.081347 -115.148676 154 2099ft 3kts
08-Jan-18 23:12 36.079262 -115.147488 156 2100ft 3kts
08-Jan-18 23:13 36.078752 -115.147177 145 2101ft 9kts
08-Jan-18 23:14 36.078270 -115.139252 89 2076ft 33kts
08-Jan-18 23:15 36.078252 -115.127213 88 2043ft 31kts
08-Jan-18 23:16 36.076694 -115.121295 195 2038ft 10kts
08-Jan-18 23:17 36.076487 -115.145174 268 2549ft 171kts
08-Jan-18 23:18 36.076595 -115.214524 264 4840ft 256kts
08-Jan-18 23:19 36.032974 -115.271670 203 8127ft 257kts
08-Jan-18 23:20 35.966920 -115.302596 193 11388ft 287kts
08-Jan-18 23:21 35.891454 -115.311386 187 13641ft 336kts
08-Jan-18 23:22 35.799969 -115.309091 178 17120ft 353kts
08-Jan-18 23:23 35.711212 -115.299456 186 19854ft 360kts
08-Jan-18 23:24 35.634596 -115.355919 224 22891ft 362kts
08-Jan-18 23:25 35.568948 -115.442091 226 25827ft 374kts
08-Jan-18 23:26 35.504948 -115.527841 226 28089ft 377kts
08-Jan-18 23:27 35.438189 -115.617606 227 28110ft 376kts
08-Jan-18 23:28 35.384679 -115.689327 226 28120ft 376kts
08-Jan-18 23:29 35.318507 -115.780713 228 28087ft 377kts
08-Jan-18 23:30 35.249676 -115.872326 225 28048ft 376kts
08-Jan-18 23:31 35.178634 -115.962035 225 28023ft 376kts
08-Jan-18 23:32 35.108352 -116.050284 225 28020ft 377kts
08-Jan-18 23:33 35.041898 -116.133684 225 28018ft 377kts
08-Jan-18 23:34 34.970991 -116.222789 225 28025ft 376kts
08-Jan-18 23:35 34.900792 -116.311053 225 28018ft 376kts
08-Jan-18 23:36 34.835727 -116.393661 225 28010ft 368kts
08-Jan-18 23:37 34.767192 -116.480821 225 26943ft 366kts
08-Jan-18 23:38 34.703190 -116.562264 224 25266ft 327kts
08-Jan-18 23:39 34.639179 -116.628213 218 23664ft 327kts
08-Jan-18 23:40 34.574227 -116.691249 217 22060ft 321kts
08-Jan-18 23:41 34.506977 -116.756885 217 20387ft 317kts
08-Jan-18 23:42 34.444966 -116.828109 222 18736ft 314kts
08-Jan-18 23:43 34.384549 -116.898356 221 17176ft 311kts
08-Jan-18 23:44 34.325635 -116.966670 221 15576ft 307kts
08-Jan-18 23:45 34.268060 -117.032630 218 14066ft 302kts
08-Jan-18 23:46 34.199651 -117.082497 209 13462ft 301kts
08-Jan-18 23:47 34.127682 -117.126370 203 12931ft 300kts
08-Jan-18 23:48 34.054804 -117.165036 203 12405ft 299kts
08-Jan-18 23:49 33.985178 -117.210615 225 11776ft 303kts
08-Jan-18 23:50 33.932760 -117.285060 225 10578ft 294kts
08-Jan-18 23:51 33.887618 -117.349231 225 9565ft 258kts
08-Jan-18 23:52 33.844118 -117.410698 225 8582ft 238kts
08-Jan-18 23:53 33.808702 -117.475064 245 7803ft 244kts
08-Jan-18 23:54 33.799005 -117.542233 271 7638ft 222kts
08-Jan-18 23:55 33.804479 -117.615615 272 6303ft 224kts
08-Jan-18 23:56 33.832993 -117.672850 311 4984ft 200kts
08-Jan-18 23:57 33.865680 -117.721628 310 4007ft 181kts
08-Jan-18 23:58 33.843422 -117.764425 202 3634ft 183kts
08-Jan-18 23:59 33.800666 -117.789609 208 2766ft 170kts
09-Jan-18 00:00 33.762892 -117.813466 209 1885ft 143kts
09-Jan-18 00:01 33.728162 -117.835849 209 1111ft 143kts
09-Jan-18 00:02 33.693547 -117.857425 208 417ft 139kts
09-Jan-18 00:03 33.670759 -117.872010 206 64ft 27kts
09-Jan-18 00:04 33.671196 -117.868825 37 64ft 19kts
09-Jan-18 00:05 33.676514 -117.864944 26 64ft 23kts
09-Jan-18 00:06 33.677200 -117.863705 115 64ft 0kts

Navigation Log

Ident Type
Flight plan parsing failed, navigation log unavailable